Huvudsida
METAR-TAF:

METAR-TAF

Flygplatser :

Dallas/Fort Worth International Airport

Dallas / Fort Worth, Texas, USA

latitud: 32-53-49N, longitud: 097-01-19W, höjd: 183 m

Aktuellt väderrapport

Denna rapport gjordes för 19 minuter sedan, klockan 05:53 UTC
Vind 5 kt från syd
Temperatur 24°C
Fuktighet 74%
Tryck 1018 hPa
Sikt: 16.1 km
Få moln på en höjd av 6000 ft
Få moln på en höjd av 25000 ft

METAR: KDFW 240553Z 17005KT 10SM FEW060 FEW250 24/19 A3005 RMK AO2 SLP167 T02440194 10311 20244 403280211 51016

Tid: 01:12 (06:12 UTC)

Väderprognos

Denna rapport gjordes för 52 minuter sedan, klockan 05:20 UTC
Prognos gäller från 24 kl. 06 UTC till 25 kl. 12 UTC
Vind 8 kt från syd/sydost
Sikt: 10 km
Spridda moln på en höjd av 6000 ft
Spridda moln på en höjd av 30000 ft

TAF: KDFW 240520Z 2406/2512 16008KT P6SM SCT060 SCT300

Aktuella väderrapporter och prognoser från 4000 flygplatser (METAR- och TAF-rapporter).

De tillgängliga stationerna syns som gula och röda prickar på kartan.

För musen över prickarna för att se namnen på stationerna.

Klicka sedan för att få väderrapporter och prognoser.

För att ändra kartan: Klicka på de gröna knapparna med ett svart kors på för att zooma in; den gröna knappen med ett streck på för att zooma ut; eller på de gröna pilarna för angränsande kartor.


METAR-TAF: